sensor_id;sensor_type;location;lat;lon;timestamp;P1;durP1;ratioP1;P2;durP2;ratioP2
4508;SDS011;2267;48.816;9.230;2023-05-16T00:00:34;12.17;;;11.10;;
4508;SDS011;2267;48.816;9.230;2023-05-16T00:03:03;12.17;;;11.17;;
4508;SDS011;2267;48.816;9.230;2023-05-16T00:05:31;12.20;;;11.20;;
4508;SDS011;2267;48.816;9.230;2023-05-16T00:07:58;12.87;;;11.80;;
4508;SDS011;2267;48.816;9.230;2023-05-16T00:10:25;11.30;;;10.40;;
4508;SDS011;2267;48.816;9.230;2023-05-16T00:12:52;11.10;;;10.20;;
4508;SDS011;2267;48.816;9.230;2023-05-16T00:15:19;11.90;;;10.90;;
4508;SDS011;2267;48.816;9.230;2023-05-16T00:17:46;11.70;;;10.80;;
4508;SDS011;2267;48.816;9.230;2023-05-16T00:20:12;11.80;;;10.70;;
4508;SDS011;2267;48.816;9.230;2023-05-16T00:22:42;12.27;;;11.30;;
4508;SDS011;2267;48.816;9.230;2023-05-16T00:25:09;13.60;;;12.40;;
4508;SDS011;2267;48.816;9.230;2023-05-16T00:27:36;12.60;;;11.63;;
4508;SDS011;2267;48.816;9.230;2023-05-16T00:30:03;11.80;;;10.90;;
4508;SDS011;2267;48.816;9.230;2023-05-16T00:32:30;12.73;;;11.73;;
4508;SDS011;2267;48.816;9.230;2023-05-16T00:34:57;12.87;;;11.77;;
4508;SDS011;2267;48.816;9.230;2023-05-16T00:37:24;11.20;;;10.20;;
4508;SDS011;2267;48.816;9.230;2023-05-16T00:39:51;12.23;;;11.23;;
4508;SDS011;2267;48.816;9.230;2023-05-16T00:42:18;11.47;;;10.60;;
4508;SDS011;2267;48.816;9.230;2023-05-16T00:44:46;12.50;;;11.57;;
4508;SDS011;2267;48.816;9.230;2023-05-16T00:47:13;13.20;;;12.20;;
4508;SDS011;2267;48.816;9.230;2023-05-16T00:49:40;13.07;;;12.00;;
4508;SDS011;2267;48.816;9.230;2023-05-16T00:52:07;13.20;;;12.10;;
4508;SDS011;2267;48.816;9.230;2023-05-16T00:54:34;13.10;;;12.10;;
4508;SDS011;2267;48.816;9.230;2023-05-16T00:57:01;14.70;;;13.60;;
4508;SDS011;2267;48.816;9.230;2023-05-16T00:59:29;14.47;;;13.30;;
4508;SDS011;2267;48.816;9.230;2023-05-16T01:01:56;14.43;;;13.23;;
4508;SDS011;2267;48.816;9.230;2023-05-16T01:04:24;13.70;;;12.60;;
4508;SDS011;2267;48.816;9.230;2023-05-16T01:06:52;15.17;;;13.97;;
4508;SDS011;2267;48.816;9.230;2023-05-16T01:09:18;14.40;;;13.30;;
4508;SDS011;2267;48.816;9.230;2023-05-16T01:17:06;15.83;;;14.57;;
4508;SDS011;2267;48.816;9.230;2023-05-16T01:22:46;14.50;;;13.30;;
4508;SDS011;2267;48.816;9.230;2023-05-16T01:28:04;16.00;;;14.63;;
4508;SDS011;2267;48.816;9.230;2023-05-16T01:30:34;15.53;;;14.33;;
4508;SDS011;2267;48.816;9.230;2023-05-16T01:33:03;16.60;;;15.30;;
4508;SDS011;2267;48.816;9.230;2023-05-16T01:35:30;16.33;;;15.03;;
4508;SDS011;2267;48.816;9.230;2023-05-16T01:43:28;16.43;;;15.13;;
4508;SDS011;2267;48.816;9.230;2023-05-16T01:46:01;15.67;;;14.50;;
4508;SDS011;2267;48.816;9.230;2023-05-16T01:48:57;16.73;;;15.40;;
4508;SDS011;2267;48.816;9.230;2023-05-16T01:51:49;14.90;;;13.80;;
4508;SDS011;2267;48.816;9.230;2023-05-16T01:54:19;17.00;;;15.80;;
4508;SDS011;2267;48.816;9.230;2023-05-16T01:56:51;16.67;;;15.27;;
4508;SDS011;2267;48.816;9.230;2023-05-16T01:59:20;16.93;;;15.50;;
4508;SDS011;2267;48.816;9.230;2023-05-16T02:01:52;18.73;;;17.23;;
4508;SDS011;2267;48.816;9.230;2023-05-16T02:04:20;17.73;;;16.33;;
4508;SDS011;2267;48.816;9.230;2023-05-16T02:06:47;20.37;;;18.60;;
4508;SDS011;2267;48.816;9.230;2023-05-16T02:09:14;21.17;;;19.37;;
4508;SDS011;2267;48.816;9.230;2023-05-16T02:11:41;20.60;;;18.90;;
4508;SDS011;2267;48.816;9.230;2023-05-16T02:14:08;22.77;;;20.97;;
4508;SDS011;2267;48.816;9.230;2023-05-16T02:16:35;24.20;;;21.93;;
4508;SDS011;2267;48.816;9.230;2023-05-16T02:19:02;22.70;;;20.77;;
4508;SDS011;2267;48.816;9.230;2023-05-16T02:21:29;25.00;;;23.00;;
4508;SDS011;2267;48.816;9.230;2023-05-16T02:23:56;26.70;;;24.10;;
4508;SDS011;2267;48.816;9.230;2023-05-16T02:26:23;24.43;;;22.43;;
4508;SDS011;2267;48.816;9.230;2023-05-16T02:28:50;25.87;;;23.70;;
4508;SDS011;2267;48.816;9.230;2023-05-16T02:31:26;25.40;;;23.30;;
4508;SDS011;2267;48.816;9.230;2023-05-16T02:33:54;24.90;;;22.90;;
4508;SDS011;2267;48.816;9.230;2023-05-16T02:36:22;25.67;;;23.53;;
4508;SDS011;2267;48.816;9.230;2023-05-16T02:38:49;26.13;;;23.90;;
4508;SDS011;2267;48.816;9.230;2023-05-16T02:41:15;27.70;;;25.37;;
4508;SDS011;2267;48.816;9.230;2023-05-16T02:43:42;30.30;;;27.80;;
4508;SDS011;2267;48.816;9.230;2023-05-16T02:46:28;29.77;;;27.37;;
4508;SDS011;2267;48.816;9.230;2023-05-16T02:48:56;32.93;;;30.07;;
4508;SDS011;2267;48.816;9.230;2023-05-16T02:51:24;30.73;;;28.00;;
4508;SDS011;2267;48.816;9.230;2023-05-16T02:53:52;30.60;;;28.00;;
4508;SDS011;2267;48.816;9.230;2023-05-16T02:56:22;34.53;;;31.27;;
4508;SDS011;2267;48.816;9.230;2023-05-16T02:58:49;32.07;;;29.47;;
4508;SDS011;2267;48.816;9.230;2023-05-16T03:01:16;31.77;;;29.07;;
4508;SDS011;2267;48.816;9.230;2023-05-16T03:03:43;33.80;;;30.90;;
4508;SDS011;2267;48.816;9.230;2023-05-16T03:06:10;34.43;;;31.27;;
4508;SDS011;2267;48.816;9.230;2023-05-16T03:08:37;34.77;;;31.57;;
4508;SDS011;2267;48.816;9.230;2023-05-16T03:11:04;31.73;;;29.10;;
4508;SDS011;2267;48.816;9.230;2023-05-16T03:13:31;32.27;;;29.40;;
4508;SDS011;2267;48.816;9.230;2023-05-16T03:15:58;32.50;;;29.80;;
4508;SDS011;2267;48.816;9.230;2023-05-16T03:18:25;33.47;;;30.60;;
4508;SDS011;2267;48.816;9.230;2023-05-16T03:20:52;34.43;;;31.50;;
4508;SDS011;2267;48.816;9.230;2023-05-16T03:23:19;33.90;;;30.80;;
4508;SDS011;2267;48.816;9.230;2023-05-16T03:25:46;34.47;;;31.13;;
4508;SDS011;2267;48.816;9.230;2023-05-16T03:28:15;35.27;;;32.17;;
4508;SDS011;2267;48.816;9.230;2023-05-16T03:30:43;35.90;;;32.80;;
4508;SDS011;2267;48.816;9.230;2023-05-16T03:33:10;34.80;;;31.70;;
4508;SDS011;2267;48.816;9.230;2023-05-16T03:35:37;35.90;;;32.80;;
4508;SDS011;2267;48.816;9.230;2023-05-16T03:38:06;34.40;;;31.40;;
4508;SDS011;2267;48.816;9.230;2023-05-16T03:40:32;35.03;;;32.10;;
4508;SDS011;2267;48.816;9.230;2023-05-16T03:42:59;34.20;;;31.27;;
4508;SDS011;2267;48.816;9.230;2023-05-16T03:45:26;36.33;;;33.07;;
4508;SDS011;2267;48.816;9.230;2023-05-16T03:47:54;38.40;;;34.90;;
4508;SDS011;2267;48.816;9.230;2023-05-16T03:50:21;36.83;;;33.50;;
4508;SDS011;2267;48.816;9.230;2023-05-16T03:52:48;37.20;;;34.03;;
4508;SDS011;2267;48.816;9.230;2023-05-16T03:55:15;37.27;;;33.90;;
4508;SDS011;2267;48.816;9.230;2023-05-16T03:57:42;38.30;;;34.90;;
4508;SDS011;2267;48.816;9.230;2023-05-16T04:00:11;37.07;;;33.47;;
4508;SDS011;2267;48.816;9.230;2023-05-16T04:02:38;38.20;;;34.77;;
4508;SDS011;2267;48.816;9.230;2023-05-16T04:05:07;36.57;;;33.20;;
4508;SDS011;2267;48.816;9.230;2023-05-16T04:07:35;38.80;;;35.30;;
4508;SDS011;2267;48.816;9.230;2023-05-16T04:10:02;40.83;;;37.23;;
4508;SDS011;2267;48.816;9.230;2023-05-16T04:12:30;40.37;;;36.77;;
4508;SDS011;2267;48.816;9.230;2023-05-16T04:14:57;39.43;;;35.70;;
4508;SDS011;2267;48.816;9.230;2023-05-16T04:17:24;39.83;;;36.07;;
4508;SDS011;2267;48.816;9.230;2023-05-16T04:19:51;40.37;;;36.67;;
4508;SDS011;2267;48.816;9.230;2023-05-16T04:22:19;41.60;;;37.80;;
4508;SDS011;2267;48.816;9.230;2023-05-16T04:24:48;44.40;;;40.33;;
4508;SDS011;2267;48.816;9.230;2023-05-16T04:27:15;44.80;;;40.77;;
4508;SDS011;2267;48.816;9.230;2023-05-16T04:29:42;39.73;;;36.13;;
4508;SDS011;2267;48.816;9.230;2023-05-16T04:32:09;43.97;;;39.97;;
4508;SDS011;2267;48.816;9.230;2023-05-16T04:34:36;40.73;;;36.97;;
4508;SDS011;2267;48.816;9.230;2023-05-16T04:37:05;46.00;;;41.67;;
4508;SDS011;2267;48.816;9.230;2023-05-16T04:39:34;43.57;;;39.43;;
4508;SDS011;2267;48.816;9.230;2023-05-16T04:42:01;44.83;;;40.47;;
4508;SDS011;2267;48.816;9.230;2023-05-16T04:44:29;44.80;;;40.50;;
4508;SDS011;2267;48.816;9.230;2023-05-16T04:46:56;44.50;;;40.30;;
4508;SDS011;2267;48.816;9.230;2023-05-16T04:49:23;43.20;;;39.30;;
4508;SDS011;2267;48.816;9.230;2023-05-16T04:51:50;45.80;;;41.50;;
4508;SDS011;2267;48.816;9.230;2023-05-16T04:54:17;45.77;;;41.47;;
4508;SDS011;2267;48.816;9.230;2023-05-16T04:56:44;46.83;;;42.33;;
4508;SDS011;2267;48.816;9.230;2023-05-16T04:59:10;45.03;;;40.73;;
4508;SDS011;2267;48.816;9.230;2023-05-16T05:01:37;41.00;;;37.27;;
4508;SDS011;2267;48.816;9.230;2023-05-16T05:04:05;44.80;;;40.47;;
4508;SDS011;2267;48.816;9.230;2023-05-16T05:06:31;47.03;;;42.53;;
4508;SDS011;2267;48.816;9.230;2023-05-16T05:08:58;44.80;;;40.47;;
4508;SDS011;2267;48.816;9.230;2023-05-16T05:11:25;44.73;;;40.50;;
4508;SDS011;2267;48.816;9.230;2023-05-16T05:13:52;45.23;;;41.07;;
4508;SDS011;2267;48.816;9.230;2023-05-16T05:16:19;44.17;;;40.13;;
4508;SDS011;2267;48.816;9.230;2023-05-16T05:18:46;45.10;;;41.10;;
4508;SDS011;2267;48.816;9.230;2023-05-16T05:21:13;45.53;;;41.20;;
4508;SDS011;2267;48.816;9.230;2023-05-16T05:23:40;43.93;;;39.80;;
4508;SDS011;2267;48.816;9.230;2023-05-16T05:26:06;42.57;;;38.60;;
4508;SDS011;2267;48.816;9.230;2023-05-16T05:28:33;44.70;;;40.47;;
4508;SDS011;2267;48.816;9.230;2023-05-16T05:31:00;43.77;;;39.77;;
4508;SDS011;2267;48.816;9.230;2023-05-16T05:33:27;40.97;;;37.17;;
4508;SDS011;2267;48.816;9.230;2023-05-16T05:35:54;43.87;;;39.67;;
4508;SDS011;2267;48.816;9.230;2023-05-16T05:38:21;42.40;;;38.50;;
4508;SDS011;2267;48.816;9.230;2023-05-16T05:40:48;44.63;;;40.33;;
4508;SDS011;2267;48.816;9.230;2023-05-16T05:43:15;45.50;;;41.40;;
4508;SDS011;2267;48.816;9.230;2023-05-16T05:45:42;45.70;;;41.10;;
4508;SDS011;2267;48.816;9.230;2023-05-16T05:48:10;43.70;;;39.60;;
4508;SDS011;2267;48.816;9.230;2023-05-16T05:50:37;40.70;;;37.00;;
4508;SDS011;2267;48.816;9.230;2023-05-16T05:53:04;35.73;;;32.40;;
4508;SDS011;2267;48.816;9.230;2023-05-16T05:55:31;41.97;;;38.03;;
4508;SDS011;2267;48.816;9.230;2023-05-16T05:57:58;41.07;;;37.37;;
4508;SDS011;2267;48.816;9.230;2023-05-16T06:00:25;43.07;;;39.17;;
4508;SDS011;2267;48.816;9.230;2023-05-16T06:02:52;39.83;;;36.30;;
4508;SDS011;2267;48.816;9.230;2023-05-16T06:05:20;44.73;;;40.50;;
4508;SDS011;2267;48.816;9.230;2023-05-16T06:07:47;41.60;;;37.77;;
4508;SDS011;2267;48.816;9.230;2023-05-16T06:10:14;39.53;;;35.97;;
4508;SDS011;2267;48.816;9.230;2023-05-16T06:12:40;42.73;;;38.83;;
4508;SDS011;2267;48.816;9.230;2023-05-16T06:15:08;40.60;;;37.00;;
4508;SDS011;2267;48.816;9.230;2023-05-16T06:17:35;40.27;;;36.60;;
4508;SDS011;2267;48.816;9.230;2023-05-16T06:20:02;41.00;;;37.13;;
4508;SDS011;2267;48.816;9.230;2023-05-16T06:22:30;39.83;;;36.10;;
4508;SDS011;2267;48.816;9.230;2023-05-16T06:24:56;36.27;;;33.07;;
4508;SDS011;2267;48.816;9.230;2023-05-16T06:27:24;35.67;;;32.37;;
4508;SDS011;2267;48.816;9.230;2023-05-16T06:29:51;36.10;;;33.00;;
4508;SDS011;2267;48.816;9.230;2023-05-16T06:32:18;35.17;;;31.93;;
4508;SDS011;2267;48.816;9.230;2023-05-16T06:34:44;34.17;;;31.00;;
4508;SDS011;2267;48.816;9.230;2023-05-16T06:37:11;34.63;;;31.57;;
4508;SDS011;2267;48.816;9.230;2023-05-16T06:39:38;35.13;;;31.90;;
4508;SDS011;2267;48.816;9.230;2023-05-16T06:42:05;31.20;;;28.50;;
4508;SDS011;2267;48.816;9.230;2023-05-16T06:44:32;31.43;;;28.67;;
4508;SDS011;2267;48.816;9.230;2023-05-16T06:46:58;30.83;;;28.10;;
4508;SDS011;2267;48.816;9.230;2023-05-16T06:49:25;28.67;;;26.13;;
4508;SDS011;2267;48.816;9.230;2023-05-16T06:51:52;28.97;;;26.40;;
4508;SDS011;2267;48.816;9.230;2023-05-16T06:54:19;32.23;;;29.53;;
4508;SDS011;2267;48.816;9.230;2023-05-16T06:56:46;29.47;;;26.87;;
4508;SDS011;2267;48.816;9.230;2023-05-16T06:59:13;30.80;;;28.10;;
4508;SDS011;2267;48.816;9.230;2023-05-16T07:01:40;29.27;;;26.77;;
4508;SDS011;2267;48.816;9.230;2023-05-16T07:04:07;30.23;;;27.70;;
4508;SDS011;2267;48.816;9.230;2023-05-16T07:06:34;30.63;;;28.00;;
4508;SDS011;2267;48.816;9.230;2023-05-16T07:09:01;28.27;;;25.80;;
4508;SDS011;2267;48.816;9.230;2023-05-16T07:11:28;28.20;;;25.50;;
4508;SDS011;2267;48.816;9.230;2023-05-16T07:13:55;26.10;;;23.70;;
4508;SDS011;2267;48.816;9.230;2023-05-16T07:16:22;27.53;;;25.17;;
4508;SDS011;2267;48.816;9.230;2023-05-16T07:18:49;26.63;;;24.23;;
4508;SDS011;2267;48.816;9.230;2023-05-16T07:21:16;27.90;;;25.23;;
4508;SDS011;2267;48.816;9.230;2023-05-16T07:23:43;25.03;;;22.77;;
4508;SDS011;2267;48.816;9.230;2023-05-16T07:26:10;27.87;;;25.27;;
4508;SDS011;2267;48.816;9.230;2023-05-16T07:28:37;25.43;;;23.20;;
4508;SDS011;2267;48.816;9.230;2023-05-16T07:31:04;24.83;;;22.73;;
4508;SDS011;2267;48.816;9.230;2023-05-16T07:33:32;23.40;;;21.40;;
4508;SDS011;2267;48.816;9.230;2023-05-16T07:35:59;21.37;;;19.47;;
4508;SDS011;2267;48.816;9.230;2023-05-16T07:38:41;19.47;;;17.90;;
4508;SDS011;2267;48.816;9.230;2023-05-16T07:41:08;18.73;;;17.20;;
4508;SDS011;2267;48.816;9.230;2023-05-16T07:43:35;18.70;;;17.20;;
4508;SDS011;2267;48.816;9.230;2023-05-16T07:46:02;18.73;;;17.13;;
4508;SDS011;2267;48.816;9.230;2023-05-16T07:48:30;19.50;;;17.80;;
4508;SDS011;2267;48.816;9.230;2023-05-16T07:50:57;17.67;;;16.27;;
4508;SDS011;2267;48.816;9.230;2023-05-16T07:53:23;15.73;;;14.53;;
4508;SDS011;2267;48.816;9.230;2023-05-16T07:55:50;16.77;;;15.40;;
4508;SDS011;2267;48.816;9.230;2023-05-16T07:58:17;16.80;;;15.43;;
4508;SDS011;2267;48.816;9.230;2023-05-16T08:00:45;17.07;;;15.70;;
4508;SDS011;2267;48.816;9.230;2023-05-16T08:03:11;15.00;;;13.70;;
4508;SDS011;2267;48.816;9.230;2023-05-16T08:05:39;16.50;;;15.10;;
4508;SDS011;2267;48.816;9.230;2023-05-16T08:08:06;16.37;;;15.07;;
4508;SDS011;2267;48.816;9.230;2023-05-16T08:10:32;14.30;;;13.10;;
4508;SDS011;2267;48.816;9.230;2023-05-16T08:12:59;15.53;;;14.33;;
4508;SDS011;2267;48.816;9.230;2023-05-16T08:15:26;14.13;;;12.93;;
4508;SDS011;2267;48.816;9.230;2023-05-16T08:17:55;13.93;;;12.80;;
4508;SDS011;2267;48.816;9.230;2023-05-16T08:20:24;12.17;;;11.27;;
4508;SDS011;2267;48.816;9.230;2023-05-16T08:22:51;11.27;;;10.37;;
4508;SDS011;2267;48.816;9.230;2023-05-16T08:25:18;13.20;;;12.10;;
4508;SDS011;2267;48.816;9.230;2023-05-16T08:27:48;14.50;;;13.33;;
4508;SDS011;2267;48.816;9.230;2023-05-16T08:30:15;13.40;;;12.30;;
4508;SDS011;2267;48.816;9.230;2023-05-16T08:32:42;14.93;;;13.83;;
4508;SDS011;2267;48.816;9.230;2023-05-16T08:35:09;13.17;;;12.17;;
4508;SDS011;2267;48.816;9.230;2023-05-16T08:37:36;13.80;;;12.80;;
4508;SDS011;2267;48.816;9.230;2023-05-16T08:40:04;14.93;;;13.77;;
4508;SDS011;2267;48.816;9.230;2023-05-16T08:42:33;15.57;;;14.37;;
4508;SDS011;2267;48.816;9.230;2023-05-16T08:45:01;16.63;;;15.30;;
4508;SDS011;2267;48.816;9.230;2023-05-16T08:47:29;16.50;;;15.23;;
4508;SDS011;2267;48.816;9.230;2023-05-16T08:49:57;15.90;;;14.60;;
4508;SDS011;2267;48.816;9.230;2023-05-16T08:52:26;18.87;;;17.27;;
4508;SDS011;2267;48.816;9.230;2023-05-16T08:54:56;18.30;;;16.90;;
4508;SDS011;2267;48.816;9.230;2023-05-16T08:57:30;18.77;;;17.33;;
4508;SDS011;2267;48.816;9.230;2023-05-16T08:59:59;17.90;;;16.40;;
4508;SDS011;2267;48.816;9.230;2023-05-16T09:02:29;19.50;;;18.03;;
4508;SDS011;2267;48.816;9.230;2023-05-16T09:04:56;18.63;;;17.00;;
4508;SDS011;2267;48.816;9.230;2023-05-16T09:07:24;20.07;;;18.43;;
4508;SDS011;2267;48.816;9.230;2023-05-16T09:09:51;21.37;;;19.57;;
4508;SDS011;2267;48.816;9.230;2023-05-16T09:12:18;21.23;;;19.50;;
4508;SDS011;2267;48.816;9.230;2023-05-16T09:14:45;22.67;;;20.87;;
4508;SDS011;2267;48.816;9.230;2023-05-16T09:17:12;21.23;;;19.30;;
4508;SDS011;2267;48.816;9.230;2023-05-16T09:19:45;22.07;;;20.20;;
4508;SDS011;2267;48.816;9.230;2023-05-16T09:22:15;21.53;;;19.77;;
4508;SDS011;2267;48.816;9.230;2023-05-16T09:24:43;22.47;;;20.47;;
4508;SDS011;2267;48.816;9.230;2023-05-16T09:27:14;21.27;;;19.57;;
4508;SDS011;2267;48.816;9.230;2023-05-16T09:29:41;23.60;;;21.60;;
4508;SDS011;2267;48.816;9.230;2023-05-16T09:32:12;22.40;;;20.60;;
4508;SDS011;2267;48.816;9.230;2023-05-16T09:34:44;23.40;;;21.30;;
4508;SDS011;2267;48.816;9.230;2023-05-16T09:37:14;22.30;;;20.40;;
4508;SDS011;2267;48.816;9.230;2023-05-16T09:39:44;23.47;;;21.47;;
4508;SDS011;2267;48.816;9.230;2023-05-16T09:42:21;22.80;;;20.90;;
4508;SDS011;2267;48.816;9.230;2023-05-16T09:44:48;19.93;;;18.13;;
4508;SDS011;2267;48.816;9.230;2023-05-16T09:47:17;22.53;;;20.63;;
4508;SDS011;2267;48.816;9.230;2023-05-16T09:49:44;21.50;;;19.80;;
4508;SDS011;2267;48.816;9.230;2023-05-16T09:52:12;22.00;;;19.97;;
4508;SDS011;2267;48.816;9.230;2023-05-16T09:54:39;22.93;;;20.97;;
4508;SDS011;2267;48.816;9.230;2023-05-16T09:57:06;22.33;;;20.53;;
4508;SDS011;2267;48.816;9.230;2023-05-16T09:59:34;26.20;;;23.90;;
4508;SDS011;2267;48.816;9.230;2023-05-16T10:02:02;23.93;;;21.87;;
4508;SDS011;2267;48.816;9.230;2023-05-16T10:04:33;22.93;;;20.93;;
4508;SDS011;2267;48.816;9.230;2023-05-16T10:07:04;22.50;;;20.43;;
4508;SDS011;2267;48.816;9.230;2023-05-16T10:09:32;22.03;;;20.23;;
4508;SDS011;2267;48.816;9.230;2023-05-16T10:11:59;21.43;;;19.43;;
4508;SDS011;2267;48.816;9.230;2023-05-16T10:14:35;23.70;;;21.60;;
4508;SDS011;2267;48.816;9.230;2023-05-16T10:17:03;26.90;;;24.50;;
4508;SDS011;2267;48.816;9.230;2023-05-16T10:19:31;23.47;;;21.37;;
4508;SDS011;2267;48.816;9.230;2023-05-16T10:22:04;23.40;;;21.33;;
4508;SDS011;2267;48.816;9.230;2023-05-16T10:24:58;23.83;;;21.60;;
4508;SDS011;2267;48.816;9.230;2023-05-16T10:27:25;24.97;;;22.77;;
4508;SDS011;2267;48.816;9.230;2023-05-16T10:29:54;21.47;;;19.60;;
4508;SDS011;2267;48.816;9.230;2023-05-16T10:32:22;22.20;;;20.33;;
4508;SDS011;2267;48.816;9.230;2023-05-16T10:34:53;24.20;;;22.17;;
4508;SDS011;2267;48.816;9.230;2023-05-16T10:37:22;23.80;;;21.57;;
4508;SDS011;2267;48.816;9.230;2023-05-16T10:39:50;22.60;;;20.40;;
4508;SDS011;2267;48.816;9.230;2023-05-16T10:42:17;20.57;;;18.73;;
4508;SDS011;2267;48.816;9.230;2023-05-16T10:44:45;22.77;;;20.67;;
4508;SDS011;2267;48.816;9.230;2023-05-16T10:47:29;22.90;;;20.80;;
4508;SDS011;2267;48.816;9.230;2023-05-16T10:49:56;24.23;;;22.03;;
4508;SDS011;2267;48.816;9.230;2023-05-16T10:52:23;24.70;;;22.50;;
4508;SDS011;2267;48.816;9.230;2023-05-16T10:55:01;21.63;;;19.73;;
4508;SDS011;2267;48.816;9.230;2023-05-16T10:57:29;20.73;;;18.90;;
4508;SDS011;2267;48.816;9.230;2023-05-16T10:59:58;22.73;;;20.70;;
4508;SDS011;2267;48.816;9.230;2023-05-16T11:02:31;22.20;;;20.13;;
4508;SDS011;2267;48.816;9.230;2023-05-16T11:05:05;23.77;;;21.53;;
4508;SDS011;2267;48.816;9.230;2023-05-16T11:07:33;21.80;;;19.90;;
4508;SDS011;2267;48.816;9.230;2023-05-16T11:12:42;19.97;;;18.17;;
4508;SDS011;2267;48.816;9.230;2023-05-16T11:15:22;19.73;;;17.90;;
4508;SDS011;2267;48.816;9.230;2023-05-16T11:18:36;19.87;;;18.17;;
4508;SDS011;2267;48.816;9.230;2023-05-16T11:20:41;17.87;;;16.27;;
4508;SDS011;2267;48.816;9.230;2023-05-16T11:25:43;17.13;;;15.50;;
4508;SDS011;2267;48.816;9.230;2023-05-16T11:28:11;15.70;;;14.40;;
4508;SDS011;2267;48.816;9.230;2023-05-16T11:30:42;13.80;;;12.60;;
4508;SDS011;2267;48.816;9.230;2023-05-16T11:33:17;15.33;;;14.00;;
4508;SDS011;2267;48.816;9.230;2023-05-16T11:35:58;12.90;;;11.80;;
4508;SDS011;2267;48.816;9.230;2023-05-16T11:38:35;13.27;;;12.13;;
4508;SDS011;2267;48.816;9.230;2023-05-16T11:41:06;11.97;;;10.97;;
4508;SDS011;2267;48.816;9.230;2023-05-16T11:43:40;12.30;;;11.20;;
4508;SDS011;2267;48.816;9.230;2023-05-16T11:46:10;11.40;;;10.50;;
4508;SDS011;2267;48.816;9.230;2023-05-16T11:48:41;12.60;;;11.50;;
4508;SDS011;2267;48.816;9.230;2023-05-16T11:51:11;13.60;;;12.40;;
4508;SDS011;2267;48.816;9.230;2023-05-16T11:53:44;12.73;;;11.57;;
4508;SDS011;2267;48.816;9.230;2023-05-16T11:56:12;11.73;;;10.70;;
4508;SDS011;2267;48.816;9.230;2023-05-16T11:58:39;12.10;;;11.00;;
4508;SDS011;2267;48.816;9.230;2023-05-16T12:01:07;13.57;;;12.47;;
4508;SDS011;2267;48.816;9.230;2023-05-16T12:03:35;10.80;;;9.90;;
4508;SDS011;2267;48.816;9.230;2023-05-16T12:06:04;11.70;;;10.63;;
4508;SDS011;2267;48.816;9.230;2023-05-16T12:08:31;11.73;;;10.77;;
4508;SDS011;2267;48.816;9.230;2023-05-16T12:10:58;10.40;;;9.60;;
4508;SDS011;2267;48.816;9.230;2023-05-16T12:13:26;11.57;;;10.57;;
4508;SDS011;2267;48.816;9.230;2023-05-16T12:15:53;14.60;;;10.80;;
4508;SDS011;2267;48.816;9.230;2023-05-16T12:18:20;9.53;;;8.80;;
4508;SDS011;2267;48.816;9.230;2023-05-16T12:20:49;10.33;;;9.43;;
4508;SDS011;2267;48.816;9.230;2023-05-16T12:23:17;10.00;;;9.17;;
4508;SDS011;2267;48.816;9.230;2023-05-16T12:25:44;8.53;;;7.83;;
4508;SDS011;2267;48.816;9.230;2023-05-16T12:28:13;8.73;;;7.93;;
4508;SDS011;2267;48.816;9.230;2023-05-16T12:30:41;8.70;;;8.00;;
4508;SDS011;2267;48.816;9.230;2023-05-16T12:33:10;9.13;;;8.43;;
4508;SDS011;2267;48.816;9.230;2023-05-16T12:35:38;8.00;;;7.40;;
4508;SDS011;2267;48.816;9.230;2023-05-16T12:38:08;8.13;;;7.53;;
4508;SDS011;2267;48.816;9.230;2023-05-16T12:40:37;7.67;;;7.00;;
4508;SDS011;2267;48.816;9.230;2023-05-16T12:43:14;7.33;;;6.73;;
4508;SDS011;2267;48.816;9.230;2023-05-16T12:45:49;8.70;;;7.30;;
4508;SDS011;2267;48.816;9.230;2023-05-16T12:48:18;6.93;;;6.30;;
4508;SDS011;2267;48.816;9.230;2023-05-16T12:50:45;6.60;;;6.10;;
4508;SDS011;2267;48.816;9.230;2023-05-16T12:53:13;6.77;;;6.27;;
4508;SDS011;2267;48.816;9.230;2023-05-16T12:55:41;6.93;;;6.37;;
4508;SDS011;2267;48.816;9.230;2023-05-16T12:58:09;6.50;;;5.90;;
4508;SDS011;2267;48.816;9.230;2023-05-16T13:00:37;7.03;;;6.27;;
4508;SDS011;2267;48.816;9.230;2023-05-16T13:03:04;5.73;;;5.23;;
4508;SDS011;2267;48.816;9.230;2023-05-16T13:05:33;5.00;;;4.60;;
4508;SDS011;2267;48.816;9.230;2023-05-16T13:08:01;5.07;;;4.67;;
4508;SDS011;2267;48.816;9.230;2023-05-16T13:10:29;5.23;;;4.53;;
4508;SDS011;2267;48.816;9.230;2023-05-16T13:12:56;4.63;;;3.83;;
4508;SDS011;2267;48.816;9.230;2023-05-16T13:15:23;4.47;;;3.70;;
4508;SDS011;2267;48.816;9.230;2023-05-16T13:17:51;4.70;;;4.30;;
4508;SDS011;2267;48.816;9.230;2023-05-16T13:20:18;4.30;;;3.90;;
4508;SDS011;2267;48.816;9.230;2023-05-16T13:22:46;3.60;;;3.30;;
4508;SDS011;2267;48.816;9.230;2023-05-16T13:25:13;5.20;;;4.80;;
4508;SDS011;2267;48.816;9.230;2023-05-16T13:27:40;4.60;;;4.30;;
4508;SDS011;2267;48.816;9.230;2023-05-16T13:30:07;5.37;;;4.97;;
4508;SDS011;2267;48.816;9.230;2023-05-16T13:32:34;3.80;;;3.50;;
4508;SDS011;2267;48.816;9.230;2023-05-16T13:35:01;3.33;;;3.00;;
4508;SDS011;2267;48.816;9.230;2023-05-16T13:37:29;3.80;;;3.50;;
4508;SDS011;2267;48.816;9.230;2023-05-16T13:39:56;4.00;;;3.60;;
4508;SDS011;2267;48.816;9.230;2023-05-16T13:42:23;4.10;;;3.30;;
4508;SDS011;2267;48.816;9.230;2023-05-16T13:44:49;3.53;;;3.27;;
4508;SDS011;2267;48.816;9.230;2023-05-16T13:47:17;3.80;;;3.40;;
4508;SDS011;2267;48.816;9.230;2023-05-16T13:49:43;5.90;;;4.03;;
4508;SDS011;2267;48.816;9.230;2023-05-16T13:52:11;3.50;;;3.17;;
4508;SDS011;2267;48.816;9.230;2023-05-16T13:54:38;7.53;;;3.67;;
4508;SDS011;2267;48.816;9.230;2023-05-16T13:57:06;5.27;;;3.43;;
4508;SDS011;2267;48.816;9.230;2023-05-16T13:59:33;3.70;;;3.10;;
4508;SDS011;2267;48.816;9.230;2023-05-16T14:02:20;4.00;;;3.27;;
4508;SDS011;2267;48.816;9.230;2023-05-16T14:04:47;4.10;;;3.70;;
4508;SDS011;2267;48.816;9.230;2023-05-16T14:07:15;3.87;;;3.50;;
4508;SDS011;2267;48.816;9.230;2023-05-16T14:09:42;3.77;;;3.37;;
4508;SDS011;2267;48.816;9.230;2023-05-16T14:12:09;5.13;;;3.10;;
4508;SDS011;2267;48.816;9.230;2023-05-16T14:14:36;6.33;;;3.60;;
4508;SDS011;2267;48.816;9.230;2023-05-16T14:17:03;3.90;;;3.50;;
4508;SDS011;2267;48.816;9.230;2023-05-16T14:19:30;4.50;;;4.10;;
4508;SDS011;2267;48.816;9.230;2023-05-16T14:21:57;4.73;;;4.33;;
4508;SDS011;2267;48.816;9.230;2023-05-16T14:24:24;4.47;;;4.17;;
4508;SDS011;2267;48.816;9.230;2023-05-16T14:26:50;4.63;;;4.23;;
4508;SDS011;2267;48.816;9.230;2023-05-16T14:29:23;4.57;;;4.13;;
4508;SDS011;2267;48.816;9.230;2023-05-16T14:31:51;4.97;;;4.40;;
4508;SDS011;2267;48.816;9.230;2023-05-16T14:34:18;4.43;;;4.03;;
4508;SDS011;2267;48.816;9.230;2023-05-16T14:36:45;4.10;;;3.70;;
4508;SDS011;2267;48.816;9.230;2023-05-16T14:39:12;3.57;;;3.27;;
4508;SDS011;2267;48.816;9.230;2023-05-16T14:41:39;4.23;;;3.80;;
4508;SDS011;2267;48.816;9.230;2023-05-16T14:44:06;4.30;;;3.33;;
4508;SDS011;2267;48.816;9.230;2023-05-16T14:46:35;3.57;;;3.27;;
4508;SDS011;2267;48.816;9.230;2023-05-16T14:49:02;4.53;;;3.10;;
4508;SDS011;2267;48.816;9.230;2023-05-16T14:51:30;3.73;;;3.10;;
4508;SDS011;2267;48.816;9.230;2023-05-16T14:53:57;3.03;;;2.60;;
4508;SDS011;2267;48.816;9.230;2023-05-16T14:56:24;6.30;;;3.07;;
4508;SDS011;2267;48.816;9.230;2023-05-16T14:58:52;3.80;;;2.77;;
4508;SDS011;2267;48.816;9.230;2023-05-16T15:01:19;3.23;;;2.50;;
4508;SDS011;2267;48.816;9.230;2023-05-16T15:03:46;3.40;;;2.80;;
4508;SDS011;2267;48.816;9.230;2023-05-16T15:06:21;2.83;;;2.40;;
4508;SDS011;2267;48.816;9.230;2023-05-16T15:08:48;2.47;;;2.10;;
4508;SDS011;2267;48.816;9.230;2023-05-16T15:11:16;2.73;;;1.97;;
4508;SDS011;2267;48.816;9.230;2023-05-16T15:13:43;4.20;;;2.17;;
4508;SDS011;2267;48.816;9.230;2023-05-16T15:16:09;2.80;;;2.37;;
4508;SDS011;2267;48.816;9.230;2023-05-16T15:18:36;2.30;;;2.10;;
4508;SDS011;2267;48.816;9.230;2023-05-16T15:21:03;4.70;;;2.30;;